Time;durP1;ratioP1;P1;durP2;ratioP2;P2;SDS_P1;SDS_P2;PMS_P1;PMS_P2;Temp;Humidity;BMP_temperature;BMP_pressure;BME280_temperature;BME280_humidity;BME280_pressure;Samples;Min_cycle;Max_cycle;Signal;HPM_P1;HPM_P2
2023/01/26 00:00:27;;;;;;;26.52;15.32;;;;;;;2.76;100.00;101124.75;5025415;28;20551;-73
2023/01/26 00:02:52;;;;;;;24.40;13.50;;;;;;;3.27;100.00;101200.34;5010510;28;20032;-70
2023/01/26 00:05:18;;;;;;;25.23;15.27;;;;;;;2.65;100.00;101099.41;5008915;28;20038;-72
2023/01/26 00:07:44;;;;;;;23.40;14.85;;;;;;;2.70;100.00;101108.69;5010575;28;20026;-69
2023/01/26 00:10:10;;;;;;;25.38;15.25;;;;;;;3.20;100.00;101204.41;5010452;28;20225;-71
2023/01/26 00:12:36;;;;;;;27.35;17.00;;;;;;;2.67;100.00;101091.94;5010310;28;20034;-71
2023/01/26 00:15:01;;;;;;;25.00;15.77;;;;;;;2.85;100.00;101104.88;5010339;28;20028;-71
2023/01/26 00:17:27;;;;;;;23.48;14.25;;;;;;;2.67;100.00;101091.06;5009768;28;20149;-71
2023/01/26 00:19:54;;;;;;;20.58;13.40;;;;;;;3.56;100.00;101173.31;5010534;28;20076;-71
2023/01/26 00:22:20;;;;;;;17.83;11.80;;;;;;;3.13;100.00;101137.25;5010527;28;20034;-71
2023/01/26 00:24:45;;;;;;;19.40;11.10;;;;;;;3.21;100.00;101170.94;5011547;28;20037;-71
2023/01/26 00:27:11;;;;;;;19.02;11.70;;;;;;;2.71;100.00;101092.84;5013666;28;20038;-71
2023/01/26 00:29:36;;;;;;;22.98;13.50;;;;;;;3.32;100.00;101159.44;5017570;28;20026;-70
2023/01/26 00:32:01;;;;;;;20.58;13.27;;;;;;;2.89;100.00;101089.06;5016275;28;20419;-73
2023/01/26 00:34:27;;;;;;;23.88;15.50;;;;;;;3.17;100.00;101185.94;5013906;28;20042;-70
2023/01/26 00:36:52;;;;;;;21.05;12.88;;;;;;;2.34;100.00;101068.59;5013342;28;20026;-69
2023/01/26 00:39:18;;;;;;;16.80;11.32;;;;;;;2.77;100.00;101181.69;5012774;28;20460;-70
2023/01/26 00:44:27;;;;;;;17.92;10.52;;;;;;;2.85;100.00;101167.66;5013270;28;20041;-70
2023/01/26 00:46:52;;;;;;;17.50;11.23;;;;;;;2.34;100.00;101087.00;5012354;28;20037;-69
2023/01/26 00:49:17;;;;;;;14.82;9.70;;;;;;;2.92;100.00;101169.47;5013442;28;20487;-70
2023/01/26 00:51:43;;;;;;;15.63;9.80;;;;;;;2.41;100.00;101095.53;5011462;28;20147;-70
2023/01/26 00:54:08;;;;;;;14.50;9.63;;;;;;;2.88;100.00;101176.88;5013013;28;20424;-69
2023/01/26 00:56:34;;;;;;;15.35;9.68;;;;;;;3.02;100.00;101170.50;5002222;28;20026;-69
2023/01/26 00:58:59;;;;;;;16.42;9.98;;;;;;;2.94;100.00;101154.44;5008467;28;20034;-69
2023/01/26 01:01:25;;;;;;;15.90;9.98;;;;;;;3.05;100.00;101160.53;5008434;28;20030;-70
2023/01/26 01:03:51;;;;;;;17.17;10.27;;;;;;;2.46;100.00;101106.50;4993878;28;20030;-69
2023/01/26 01:06:16;;;;;;;18.55;10.75;;;;;;;2.96;100.00;101168.72;4993190;28;20030;-70
2023/01/26 01:08:42;;;;;;;17.48;10.82;;;;;;;2.55;100.00;101091.66;4993258;28;20043;-70
2023/01/26 01:11:10;;;;;;;18.42;12.00;;;;;;;2.49;100.00;101074.81;5008225;28;20030;-70
2023/01/26 01:13:35;;;;;;;20.55;13.10;;;;;;;3.16;100.00;101149.91;4993469;28;20029;-71
2023/01/26 01:16:07;;;;;;;20.15;11.88;;;;;;;2.65;100.00;101083.53;4992910;28;20452;-70
2023/01/26 01:18:33;;;;;;;;;;;;;;;2.97;100.00;101147.78;4993945;28;20061;-70
2023/01/26 01:20:58;;;;;;;23.75;14.13;;;;;;;2.82;100.00;101098.91;4993422;28;19913;-71
2023/01/26 01:23:27;;;;;;;18.10;12.02;;;;;;;2.54;100.00;101067.38;4993705;28;20062;-70
2023/01/26 01:25:57;;;;;;;17.05;11.13;;;;;;;2.75;100.00;101080.41;4992829;28;20034;-70
2023/01/26 01:28:22;;;;;;;17.90;11.50;;;;;;;2.37;100.00;101046.09;5008998;28;20030;-70
2023/01/26 01:30:47;;;;;;;20.00;12.25;;;;;;;2.39;100.00;101039.44;4993332;28;20030;-72
2023/01/26 01:33:13;;;;;;;17.13;10.75;;;;;;;2.45;100.00;101047.97;4993011;28;20117;-71
2023/01/26 01:35:38;;;;;;;20.05;11.68;;;;;;;2.39;100.00;101020.22;4992762;28;20456;-70
2023/01/26 01:38:03;;;;;;;15.40;9.98;;;;;;;2.22;100.00;101049.09;4993270;28;20038;-71
2023/01/26 01:40:29;;;;;;;17.95;11.13;;;;;;;2.87;100.00;101125.84;5008269;28;20026;-72
2023/01/26 01:42:54;;;;;;;16.75;10.73;;;;;;;2.93;100.00;101122.63;4992444;28;20058;-71
2023/01/26 01:45:26;;;;;;;29.40;16.17;;;;;;;3.04;100.00;101111.13;4992798;28;20042;-70
2023/01/26 01:47:55;;;;;;;21.08;12.85;;;;;;;2.59;100.00;101035.72;5007924;28;20460;-71
2023/01/26 01:50:22;;;;;;;14.27;9.63;;;;;;;2.55;100.00;101039.81;5007668;28;20031;-70
2023/01/26 01:52:47;;;;;;;14.68;10.02;;;;;;;2.96;100.00;101102.56;4992862;28;20062;-70
2023/01/26 01:55:15;;;;;;;20.38;12.50;;;;;;;2.62;100.00;101040.78;4992028;28;20073;-70
2023/01/26 01:57:51;;;;;;;17.92;10.43;;;;;;;2.48;100.00;101029.59;4992296;28;20373;-71
2023/01/26 02:00:20;;;;;;;15.90;9.93;;;;;;;2.51;100.00;101020.50;4992306;28;20034;-70
2023/01/26 02:03:09;;;;;;;16.08;10.35;;;;;;;3.10;100.00;101113.75;4992749;28;20085;-70
2023/01/26 02:05:58;;;;;;;17.42;10.88;;;;;;;2.82;100.00;101056.25;4991803;28;20132;-70
2023/01/26 02:08:29;;;;;;;19.98;13.48;;;;;;;3.01;100.00;101108.56;4991997;28;20057;-70
2023/01/26 02:10:58;;;;;;;14.07;8.23;;;;;;;2.51;100.00;101019.63;4992477;28;20061;-71
2023/01/26 02:13:25;;;;;;;18.55;11.00;;;;;;;3.00;100.00;101100.16;5007000;28;20070;-70
2023/01/26 02:15:50;;;;;;;15.10;10.20;;;;;;;3.03;100.00;101062.53;4992735;28;20073;-70
2023/01/26 02:18:16;;;;;;;17.95;10.57;;;;;;;2.75;100.00;101032.69;5006983;28;20503;-70
2023/01/26 02:20:45;;;;;;;16.48;10.68;;;;;;;2.85;100.00;101036.25;4990950;28;20125;-70
2023/01/26 02:23:26;;;;;;;16.15;10.68;;;;;;;3.07;100.00;101107.00;4992187;28;20031;-71
2023/01/26 02:25:51;;;;;;;15.80;10.48;;;;;;;2.96;100.00;101090.88;4992076;28;20034;-70
2023/01/26 02:28:19;;;;;;;17.35;11.48;;;;;;;2.48;100.00;100984.44;4992153;28;20022;-72
2023/01/26 02:30:45;;;;;;;17.40;10.85;;;;;;;3.10;100.00;101098.69;4991727;28;20038;-70
2023/01/26 02:33:19;;;;;;;17.63;11.07;;;;;;;2.94;100.00;101066.53;4990811;28;20488;-70
2023/01/26 02:35:44;;;;;;;16.85;11.20;;;;;;;3.25;100.00;101087.25;4990426;28;20031;-70
2023/01/26 02:38:10;;;;;;;16.80;10.63;;;;;;;2.87;100.00;101007.84;4990571;28;20100;-70
2023/01/26 02:40:43;;;;;;;15.65;10.68;;;;;;;2.85;100.00;101013.66;4992188;28;20026;-70
2023/01/26 02:43:10;;;;;;;16.58;10.90;;;;;;;2.50;100.00;101022.94;4991568;28;20034;-72
2023/01/26 02:45:37;;;;;;;17.15;10.65;;;;;;;2.84;100.00;101032.88;4991610;28;20507;-70
2023/01/26 02:48:05;;;;;;;18.27;10.68;;;;;;;2.20;100.00;100997.22;4990695;28;20030;-68
2023/01/26 02:50:31;;;;;;;18.20;9.95;;;;;;;2.35;100.00;101032.66;4991937;28;20040;-69
2023/01/26 02:52:57;;;;;;;17.83;10.35;;;;;;;2.50;100.00;101007.88;4991481;28;20409;-72
2023/01/26 02:55:27;;;;;;;17.45;11.38;;;;;;;2.62;100.00;101008.16;4989688;28;20045;-70
2023/01/26 02:57:55;;;;;;;20.85;11.43;;;;;;;2.81;100.00;101107.28;4990378;28;20505;-70
2023/01/26 03:00:23;;;;;;;20.02;12.63;;;;;;;2.63;100.00;101018.22;4991228;28;20054;-71
2023/01/26 03:02:52;;;;;;;20.38;12.27;;;;;;;3.02;100.00;101105.22;5005684;28;20511;-69
2023/01/26 03:05:18;;;;;;;19.42;11.20;;;;;;;2.60;100.00;101019.81;5010948;28;20492;-72
2023/01/26 03:07:44;;;;;;;18.10;10.88;;;;;;;2.98;100.00;101089.25;5010876;28;20761;-70
2023/01/26 03:10:10;;;;;;;18.50;10.90;;;;;;;2.58;100.00;101016.44;5010572;28;20116;-69
2023/01/26 03:12:36;;;;;;;19.38;11.27;;;;;;;2.53;100.00;101007.97;5009348;28;20029;-69
2023/01/26 03:17:45;;;;;;;17.33;10.77;;;;;;;2.81;100.00;101052.06;5010841;28;20547;-70
2023/01/26 03:28:24;;;;;;;17.63;11.32;;;;;;;2.93;100.00;101002.91;5011062;28;20036;-72
2023/01/26 03:30:52;;;;;;;16.50;10.82;;;;;;;2.23;100.00;100897.81;5010834;28;20042;-72
2023/01/26 03:33:18;;;;;;;17.92;11.13;;;;;;;2.47;100.00;100981.09;5010638;28;20108;-72
2023/01/26 03:35:44;;;;;;;19.60;12.02;;;;;;;2.73;100.00;101051.91;5009440;28;20133;-72
2023/01/26 03:38:09;;;;;;;18.67;12.40;;;;;;;2.91;100.00;101042.22;5010878;28;20038;-72
2023/01/26 03:57:00;;;;;;;23.10;13.38;;;;;;;2.34;100.00;100948.19;5012121;28;20412;-74
2023/01/26 03:59:37;;;;;;;17.95;11.93;;;;;;;2.89;100.00;101023.78;5010958;28;20051;-73
2023/01/26 04:10:24;;;;;;;21.13;12.60;;;;;;;2.41;100.00;100998.53;5014550;28;20539;-71
2023/01/26 04:23:56;;;;;;;18.75;11.88;;;;;;;2.61;100.00;101016.50;5014281;28;20076;-72
2023/01/26 04:26:23;;;;;;;19.08;12.13;;;;;;;2.30;100.00;100951.44;5012637;28;20030;-72
2023/01/26 04:28:48;;;;;;;18.55;11.95;;;;;;;2.67;100.00;101025.81;5014299;28;20049;-72
2023/01/26 04:31:15;;;;;;;19.13;11.48;;;;;;;2.23;100.00;100959.66;5012420;28;20029;-72
2023/01/26 04:33:41;;;;;;;21.27;11.20;;;;;;;2.62;100.00;101001.47;5006693;28;20023;-72
2023/01/26 04:36:08;;;;;;;14.80;8.95;;;;;;;4.65;100.00;100922.59;4995058;28;20394;-72
2023/01/26 04:38:33;;;;;;;19.90;11.63;;;;;;;2.61;100.00;100911.94;4994709;28;20030;-74
2023/01/26 04:40:58;;;;;;;18.80;11.98;;;;;;;2.13;100.00;100927.66;4993376;28;20034;-74
2023/01/26 04:43:24;;;;;;;22.73;13.50;;;;;;;2.70;100.00;101001.63;4993132;28;20034;-74
2023/01/26 04:46:00;;;;;;;19.05;11.75;;;;;;;2.37;100.00;100976.69;4993106;28;20038;-72
2023/01/26 04:48:27;;;;;;;20.92;13.00;;;;;;;2.36;100.00;100979.16;4994547;28;20081;-73
2023/01/26 04:50:56;;;;;;;20.23;12.52;;;;;;;2.08;100.00;100905.00;5002478;28;20492;-74
2023/01/26 04:53:22;;;;;;;20.17;13.05;;;;;;;2.24;100.00;100873.59;5013814;28;20029;-74
2023/01/26 04:55:48;;;;;;;16.73;11.32;;;;;;;2.48;100.00;100965.22;5012496;28;20025;-74
2023/01/26 04:58:13;;;;;;;15.73;10.43;;;;;;;1.99;100.00;100837.13;5013263;28;20061;-72
2023/01/26 05:00:38;;;;;;;17.83;11.38;;;;;;;2.41;100.00;100938.31;5013383;28;20022;-75
2023/01/26 05:03:04;;;;;;;18.95;10.75;;;;;;;2.38;100.00;100942.41;5012007;28;20122;-74
2023/01/26 05:05:29;;;;;;;18.98;11.27;;;;;;;2.59;100.00;100948.69;5013237;28;20041;-72
2023/01/26 05:07:55;;;;;;;19.88;12.32;;;;;;;2.59;100.00;100937.84;5012713;28;20030;-72
2023/01/26 05:10:20;;;;;;;20.33;12.63;;;;;;;2.76;100.00;100954.06;5013030;28;20496;-73
2023/01/26 05:12:46;;;;;;;22.02;13.13;;;;;;;2.45;100.00;100912.47;5011881;28;20172;-73
2023/01/26 05:15:12;;;;;;;24.23;13.18;;;;;;;2.80;100.00;100948.28;5012024;28;20038;-74
2023/01/26 05:17:37;;;;;;;21.30;12.35;;;;;;;2.93;100.00;100942.66;5013196;28;20673;-76
2023/01/26 05:20:03;;;;;;;18.13;11.68;;;;;;;2.59;100.00;100936.16;5012902;28;20034;-76
2023/01/26 05:22:28;;;;;;;17.30;10.68;;;;;;;2.53;100.00;100917.63;5012598;28;20069;-73
2023/01/26 05:24:54;;;;;;;18.80;11.18;;;;;;;1.46;100.00;100778.41;5012397;28;20419;-71
2023/01/26 05:27:22;;;;;;;15.73;10.65;;;;;;;2.61;100.00;100932.00;5013251;28;20026;-74
2023/01/26 05:29:49;;;;;;;19.75;12.18;;;;;;;2.55;100.00;100929.41;5012860;28;20036;-73
2023/01/26 05:32:14;;;;;;;19.45;12.18;;;;;;;2.91;100.00;100938.44;5012464;28;20037;-73
2023/01/26 05:34:40;;;;;;;25.20;13.70;;;;;;;2.88;100.00;100944.25;5012807;28;20030;-73
2023/01/26 05:37:05;;;;;;;19.85;12.57;;;;;;;2.19;100.00;100857.59;5009312;28;20030;-74
2023/01/26 05:39:31;;;;;;;17.98;11.15;;;;;;;2.47;100.00;100932.56;5010940;28;20125;-73
2023/01/26 05:41:56;;;;;;;18.23;11.43;;;;;;;2.31;100.00;100837.75;5011160;28;20187;-73
2023/01/26 05:44:25;;;;;;;21.52;12.07;;;;;;;2.63;100.00;100932.88;5012368;28;20423;-73
2023/01/26 05:46:51;;;;;;;22.25;12.82;;;;;;;2.45;100.00;100881.53;5011419;28;20130;-72
2023/01/26 05:49:17;;;;;;;37.45;19.90;;;;;;;2.98;100.00;100927.69;5012435;28;20089;-70
2023/01/26 05:51:42;;;;;;;24.88;16.33;;;;;;;3.00;100.00;100962.03;5011296;28;20108;-73
2023/01/26 05:54:08;;;;;;;20.63;14.02;;;;;;;2.11;100.00;100862.44;5012064;28;20044;-72
2023/01/26 05:56:33;;;;;;;19.58;13.13;;;;;;;2.35;100.00;100895.56;5012090;28;20095;-70
2023/01/26 05:58:58;;;;;;;19.85;13.73;;;;;;;2.55;100.00;100941.94;5012200;28;20481;-73
2023/01/26 06:01:24;;;;;;;21.70;13.50;;;;;;;2.69;100.00;100954.75;5010739;28;20034;-72
2023/01/26 06:03:49;;;;;;;20.00;11.98;;;;;;;2.69;100.00;100949.75;5011693;28;20056;-70
2023/01/26 06:06:15;;;;;;;19.10;12.30;;;;;;;2.32;100.00;100864.53;5010320;28;20416;-70
2023/01/26 06:08:40;;;;;;;24.30;15.93;;;;;;;2.65;100.00;100931.25;5011929;28;20164;-71
2023/01/26 06:11:05;;;;;;;21.27;14.95;;;;;;;2.62;100.00;100937.88;5011849;28;20670;-71
2023/01/26 06:13:31;;;;;;;20.52;13.65;;;;;;;2.66;100.00;100937.13;5011586;28;20022;-70
2023/01/26 06:16:00;;;;;;;27.75;16.13;;;;;;;2.53;100.00;100920.16;5011562;28;20026;-72
2023/01/26 06:18:25;;;;;;;27.42;15.73;;;;;;;2.76;100.00;100893.81;5011298;28;20451;-72
2023/01/26 06:20:50;;;;;;;24.75;16.15;;;;;;;2.35;100.00;100842.88;5011055;28;20112;-72
2023/01/26 06:23:16;;;;;;;30.13;18.80;;;;;;;2.56;100.00;100900.97;5011733;28;20030;-72
2023/01/26 06:25:41;;;;;;;111.68;56.60;;;;;;;2.28;100.00;100831.03;5010816;28;20192;-71
2023/01/26 06:28:07;;;;;;;60.05;34.53;;;;;;;2.46;100.00;100885.69;5011421;28;20144;-70
2023/01/26 06:30:33;;;;;;;34.45;22.00;;;;;;;2.77;100.00;100920.63;5010326;28;20345;-71
2023/01/26 06:32:59;;;;;;;25.77;17.05;;;;;;;2.78;100.00;100931.47;5012073;28;20487;-72
2023/01/26 06:35:25;;;;;;;57.22;45.60;;;;;;;2.44;100.00;100873.13;5009877;28;20041;-70
2023/01/26 06:37:52;;;;;;;197.90;162.43;;;;;;;2.35;100.00;100852.06;5011673;28;20030;-70
2023/01/26 06:40:18;;;;;;;24.75;18.90;;;;;;;2.42;100.00;100876.44;5011306;28;20404;-72
2023/01/26 06:42:50;;;;;;;71.18;51.05;;;;;;;2.82;100.00;100921.53;5011134;28;20124;-70
2023/01/26 06:45:16;;;;;;;25.05;16.60;;;;;;;2.60;100.00;100892.69;5010111;28;20125;-70
2023/01/26 06:47:46;;;;;;;43.05;32.50;;;;;;;2.50;100.00;100884.94;5011280;28;20040;-70
2023/01/26 06:50:14;;;;;;;26.95;19.02;;;;;;;2.47;100.00;100842.25;5009926;28;20455;-70
2023/01/26 06:52:41;;;;;;;25.88;15.80;;;;;;;2.41;100.00;100853.03;5010765;28;20077;-70
2023/01/26 06:55:20;;;;;;;23.77;16.35;;;;;;;2.95;100.00;100930.97;5010487;28;20116;-71
2023/01/26 06:57:46;;;;;;;22.08;12.48;;;;;;;2.96;100.00;100902.53;5009745;28;20567;-72
2023/01/26 07:00:12;;;;;;;20.85;14.02;;;;;;;3.22;100.00;100913.03;5011045;28;20032;-72
2023/01/26 07:02:38;;;;;;;22.02;13.10;;;;;;;3.23;100.00;100935.66;5011023;28;20034;-70
2023/01/26 07:05:04;;;;;;;24.60;15.98;;;;;;;2.82;100.00;100862.94;5010617;28;20030;-72
2023/01/26 07:07:29;;;;;;;25.98;16.90;;;;;;;2.83;100.00;100842.91;5010677;28;20060;-69
2023/01/26 07:09:54;;;;;;;24.95;17.25;;;;;;;2.94;100.00;100921.75;5010620;28;20451;-70
2023/01/26 07:12:20;;;;;;;23.98;16.35;;;;;;;3.12;100.00;100918.72;5011535;28;20033;-70
2023/01/26 07:14:45;;;;;;;22.20;13.85;;;;;;;2.60;100.00;100840.00;5009070;28;20428;-71
2023/01/26 07:17:11;;;;;;;16.48;11.18;;;;;;;2.74;100.00;100915.53;5012681;28;20034;-70
2023/01/26 07:19:37;;;;;;;16.95;11.55;;;;;;;2.70;100.00;100892.84;5024902;28;20120;-70
2023/01/26 07:22:03;;;;;;;21.63;12.50;;;;;;;3.01;100.00;100916.00;5014973;28;20334;-70
2023/01/26 07:24:28;;;;;;;19.13;11.73;;;;;;;2.99;100.00;100914.31;5010299;28;20056;-70
2023/01/26 07:26:54;;;;;;;18.90;12.10;;;;;;;3.07;100.00;100917.81;5010208;28;20124;-70
2023/01/26 07:29:20;;;;;;;20.30;11.75;;;;;;;2.90;100.00;100894.06;5010939;28;20022;-71
2023/01/26 07:31:46;;;;;;;19.85;12.40;;;;;;;2.89;100.00;100923.34;5010327;28;20037;-71
2023/01/26 07:34:12;;;;;;;21.35;12.60;;;;;;;2.78;100.00;100894.69;5012350;28;20092;-71
2023/01/26 07:36:37;;;;;;;20.05;11.85;;;;;;;2.86;100.00;100913.25;5017466;28;20030;-71
2023/01/26 07:39:03;;;;;;;19.80;12.07;;;;;;;2.87;100.00;100919.13;5016573;28;20030;-71
2023/01/26 07:41:28;;;;;;;20.08;12.43;;;;;;;2.77;100.00;100854.50;5017287;28;20102;-70
2023/01/26 07:43:54;;;;;;;20.42;11.55;;;;;;;2.84;100.00;100838.72;5017060;28;20125;-70
2023/01/26 07:46:20;;;;;;;19.58;11.52;;;;;;;3.10;100.00;100882.69;5017277;28;20029;-71
2023/01/26 07:48:45;;;;;;;21.17;12.60;;;;;;;2.99;100.00;100899.25;5016765;28;20109;-71
2023/01/26 07:51:11;;;;;;;19.00;11.90;;;;;;;3.09;100.00;100886.84;5016690;28;20488;-71
2023/01/26 07:53:41;;;;;;;21.80;13.45;;;;;;;3.20;100.00;100895.44;5017096;28;20030;-70
2023/01/26 07:56:13;;;;;;;22.00;13.98;;;;;;;3.20;100.00;100902.97;5016815;28;20038;-71
2023/01/26 07:58:39;;;;;;;16.42;9.95;;;;;;;2.92;100.00;100882.38;5016919;28;20029;-71
2023/01/26 08:01:13;;;;;;;15.52;10.25;;;;;;;3.19;100.00;100877.84;5017135;28;20087;-70
2023/01/26 08:03:39;;;;;;;17.95;10.60;;;;;;;3.09;100.00;100864.25;5016749;28;20034;-72
2023/01/26 08:06:06;;;;;;;15.00;10.18;;;;;;;2.71;100.00;100782.47;5016625;28;20026;-69
2023/01/26 08:08:31;;;;;;;14.57;9.63;;;;;;;2.67;100.00;100777.34;5015109;28;20038;-72
2023/01/26 08:10:59;;;;;;;16.13;10.27;;;;;;;2.64;100.00;100763.94;5017105;28;20063;-71
2023/01/26 08:13:25;;;;;;;15.20;10.07;;;;;;;3.17;100.00;100827.53;5015931;28;20053;-71
2023/01/26 08:15:50;;;;;;;17.10;10.95;;;;;;;2.94;100.00;100778.63;5015732;28;20038;-72
2023/01/26 08:18:15;;;;;;;17.15;11.23;;;;;;;2.63;100.00;100738.81;5016805;28;20054;-72
2023/01/26 08:20:47;;;;;;;17.65;11.52;;;;;;;3.15;100.00;100844.25;5016667;28;20411;-72
2023/01/26 08:23:13;;;;;;;15.82;11.00;;;;;;;3.25;100.00;100842.72;5017074;28;20451;-72
2023/01/26 08:25:38;;;;;;;16.02;10.90;;;;;;;2.88;100.00;100771.00;5016866;28;20098;-72
2023/01/26 08:28:03;;;;;;;15.75;10.50;;;;;;;2.86;100.00;100787.72;5015449;28;20120;-72
2023/01/26 08:30:29;;;;;;;16.92;11.43;;;;;;;2.64;100.00;100746.38;5017051;28;20048;-72
2023/01/26 08:32:54;;;;;;;18.90;12.32;;;;;;;3.24;100.00;100836.88;5017028;28;20034;-72
2023/01/26 08:35:19;;;;;;;16.75;11.57;;;;;;;2.67;100.00;100750.59;5016902;28;20266;-73
2023/01/26 08:37:45;;;;;;;19.02;11.98;;;;;;;3.20;100.00;100850.22;5016437;28;20349;-72
2023/01/26 08:40:11;;;;;;;20.85;13.63;;;;;;;2.38;100.00;100709.13;5016968;28;20120;-73
2023/01/26 08:42:36;;;;;;;19.73;12.95;;;;;;;2.93;100.00;100826.31;5017202;28;20026;-73
2023/01/26 08:45:02;;;;;;;24.13;15.15;;;;;;;3.11;100.00;100844.22;5014554;28;20048;-72
2023/01/26 08:47:27;;;;;;;26.35;16.90;;;;;;;3.19;100.00;100846.00;5013129;28;20026;-72
2023/01/26 08:49:53;;;;;;;23.98;15.30;;;;;;;3.04;100.00;100775.44;5012684;28;20033;-72
2023/01/26 08:52:20;;;;;;;21.50;13.57;;;;;;;3.48;100.00;100852.31;5013149;28;20046;-72
2023/01/26 08:54:45;;;;;;;21.88;13.35;;;;;;;3.60;100.00;100871.75;5012054;28;20030;-72
2023/01/26 08:57:11;;;;;;;16.50;11.20;;;;;;;3.56;100.00;100854.09;5044876;28;20495;-72
2023/01/26 08:59:36;;;;;;;23.52;14.43;;;;;;;3.50;100.00;100837.25;5045122;28;20030;-72
2023/01/26 09:02:02;;;;;;;18.48;12.07;;;;;;;3.53;100.00;100842.31;5012985;28;20049;-72
2023/01/26 09:04:27;;;;;;;15.90;10.55;;;;;;;3.17;100.00;100769.78;5012747;28;20119;-72
2023/01/26 09:06:53;;;;;;;18.58;11.82;;;;;;;3.32;100.00;100790.09;5012629;28;20042;-71
2023/01/26 09:09:18;;;;;;;19.27;11.73;;;;;;;3.16;100.00;100742.13;5013074;28;20462;-71
2023/01/26 09:11:44;;;;;;;18.13;11.77;;;;;;;2.96;100.00;100698.31;5011785;28;20484;-72
2023/01/26 09:14:09;;;;;;;19.05;11.82;;;;;;;3.91;100.00;100820.19;5012486;28;20041;-73
2023/01/26 09:16:34;;;;;;;19.10;11.98;;;;;;;2.88;100.00;100690.69;5012747;28;20148;-72
2023/01/26 09:19:00;;;;;;;21.33;13.80;;;;;;;3.87;100.00;100828.53;5044909;28;20064;-71
2023/01/26 09:21:25;;;;;;;23.98;13.85;;;;;;;3.43;100.00;100732.44;5011383;28;20036;-71
2023/01/26 09:23:51;;;;;;;20.50;13.10;;;;;;;3.80;100.00;100806.66;5011346;28;20121;-71
2023/01/26 09:26:16;;;;;;;20.45;12.52;;;;;;;3.41;100.00;100742.47;5012683;28;20085;-72
2023/01/26 09:28:42;;;;;;;16.65;10.80;;;;;;;3.58;100.00;100777.03;5012968;28;20480;-72
2023/01/26 09:31:09;;;;;;;19.83;12.27;;;;;;;3.12;100.00;100706.09;5044952;28;20030;-72
2023/01/26 09:33:35;;;;;;;18.92;12.02;;;;;;;3.65;100.00;100761.19;5012766;28;20033;-72
2023/01/26 09:36:09;;;;;;;19.67;12.75;;;;;;;3.85;100.00;100768.16;5012378;28;20030;-72
2023/01/26 09:38:34;;;;;;;16.27;11.23;;;;;;;3.81;100.00;100756.38;5011456;28;20088;-71
2023/01/26 09:41:08;;;;;;;19.23;13.48;;;;;;;3.96;100.00;100750.69;5012906;28;20108;-71
2023/01/26 09:43:42;;;;;;;19.92;12.40;;;;;;;3.90;100.00;100738.88;5012374;28;20041;-71
2023/01/26 09:46:24;;;;;;;18.77;12.82;;;;;;;3.92;100.00;100736.41;5012518;28;20137;-70
2023/01/26 09:49:09;;;;;;;18.80;12.25;;;;;;;3.51;100.00;100655.47;5012657;28;20428;-71
2023/01/26 09:51:41;;;;;;;17.75;12.15;;;;;;;3.84;100.00;100644.94;5012334;28;20046;-70
2023/01/26 09:54:25;;;;;;;18.73;12.18;;;;;;;4.26;100.00;100725.81;5012158;28;20041;-71
2023/01/26 09:56:53;;;;;;;21.35;12.82;;;;;;;4.26;100.00;100718.28;5011979;28;20038;-72
2023/01/26 09:59:43;;;;;;;17.70;11.10;;;;;;;4.21;100.00;100728.31;5044125;28;20033;-71
2023/01/26 10:02:08;;;;;;;18.83;12.23;;;;;;;4.28;100.00;100712.44;5010540;28;20451;-70
2023/01/26 10:04:38;;;;;;;17.80;11.68;;;;;;;4.28;100.00;100709.06;5012075;28;20087;-71
2023/01/26 10:07:13;;;;;;;16.80;10.95;;;;;;;3.88;100.00;100619.00;5011837;28;20034;-70
2023/01/26 10:09:42;;;;;;;17.42;11.20;;;;;;;4.39;100.00;100684.88;5010625;28;20096;-72
2023/01/26 10:12:18;;;;;;;16.02;10.40;;;;;;;4.13;100.00;100613.34;5012439;28;20034;-72
2023/01/26 10:14:52;;;;;;;19.00;11.52;;;;;;;4.21;100.00;100687.22;5012228;28;20049;-72
2023/01/26 10:17:33;;;;;;;22.27;11.32;;;;;;;4.11;100.00;100623.41;5012208;28;20036;-73
2023/01/26 10:20:02;;;;;;;;;;;;;;;4.29;100.00;100675.56;5012850;28;20034;-74
2023/01/26 10:22:41;;;;;;;20.45;11.25;;;;;;;4.42;100.00;100662.22;5012164;28;19920;-73
2023/01/26 10:25:15;;;;;;;19.88;11.98;;;;;;;4.67;100.00;100661.59;5011246;28;20108;-72
2023/01/26 10:27:41;;;;;;;20.20;11.90;;;;;;;3.94;100.00;100526.03;5012576;28;20042;-73
2023/01/26 10:30:12;;;;;;;19.83;11.68;;;;;;;4.51;100.00;100643.84;5011638;28;20588;-73
2023/01/26 10:32:40;;;;;;;16.70;10.27;;;;;;;4.58;100.00;100641.38;5012372;28;20038;-73
2023/01/26 10:35:15;;;;;;;19.92;11.38;;;;;;;4.61;100.00;100630.50;5012257;28;20026;-71
2023/01/26 10:37:40;;;;;;;19.05;11.10;;;;;;;4.50;100.00;100625.38;5011468;28;20038;-72
2023/01/26 10:40:06;;;;;;;16.02;10.70;;;;;;;4.53;100.00;100619.53;5012263;28;20104;-73
2023/01/26 10:42:34;;;;;;;17.20;11.38;;;;;;;4.60;100.00;100609.50;5016852;28;20060;-71
2023/01/26 10:45:02;;;;;;;17.73;11.10;;;;;;;4.82;100.00;100598.72;5020688;28;20089;-72
2023/01/26 10:47:28;;;;;;;17.52;11.52;;;;;;;4.72;100.00;100551.66;5012227;28;20034;-71
2023/01/26 10:50:18;;;;;;;17.70;12.25;;;;;;;5.01;100.00;100574.47;5010988;28;20067;-71
2023/01/26 10:52:59;;;;;;;15.70;9.93;;;;;;;4.88;100.00;100576.06;5026128;28;20038;-72
2023/01/26 10:55:26;;;;;;;15.10;9.82;;;;;;;4.36;100.00;100478.47;5026938;28;20032;-72
2023/01/26 10:57:51;;;;;;;14.65;9.07;;;;;;;4.29;100.00;100432.31;5011371;28;20038;-72
2023/01/26 11:00:25;;;;;;;14.70;9.52;;;;;;;4.97;100.00;100538.31;5010260;28;20030;-72
2023/01/26 11:03:27;;;;;;;15.65;10.13;;;;;;;4.97;100.00;100523.19;5010883;28;20603;-71
2023/01/26 11:06:26;;;;;;;15.85;9.77;;;;;;;4.60;100.00;100481.09;4962546;28;20039;-75
2023/01/26 11:08:51;;;;;;;16.95;10.38;;;;;;;4.83;100.00;100519.78;5008769;28;20049;-72
2023/01/26 11:11:28;;;;;;;21.13;13.57;;;;;;;4.93;100.00;100525.72;5010288;28;20026;-73
2023/01/26 11:14:19;;;;;;;15.30;9.48;;;;;;;4.92;100.00;100534.97;5010045;28;20557;-74
2023/01/26 11:17:13;;;;;;;14.70;9.95;;;;;;;4.91;100.00;100530.75;5011081;28;20025;-72
2023/01/26 11:19:49;;;;;;;15.30;8.85;;;;;;;4.89;100.00;100539.97;5006900;28;20060;-71
2023/01/26 11:22:28;;;;;;;15.73;10.15;;;;;;;4.35;100.00;100426.47;5010597;28;20408;-74
2023/01/26 11:25:21;;;;;;;20.48;12.25;;;;;;;5.00;100.00;100528.28;5010861;28;20488;-73
2023/01/26 11:28:24;;;;;;;22.13;13.10;;;;;;;4.94;100.00;100508.09;5011164;28;20475;-73
2023/01/26 11:31:04;;;;;;;;;;;;;;;5.05;100.00;100498.88;5010198;28;20034;-73
2023/01/26 11:33:59;;;;;;;17.00;11.07;;;;;;;4.98;100.00;100503.91;5011373;28;19923;-75
2023/01/26 11:36:39;;;;;;;17.20;11.27;;;;;;;4.94;100.00;100498.03;4987173;28;20038;-74
2023/01/26 11:39:31;;;;;;;16.90;11.52;;;;;;;5.00;100.00;100485.44;5011066;28;20030;-74
2023/01/26 11:41:59;;;;;;;16.60;11.23;;;;;;;5.09;100.00;100508.13;5010905;28;20103;-74
2023/01/26 11:44:48;;;;;;;16.15;10.43;;;;;;;5.13;100.00;100502.25;5011117;28;20034;-71
2023/01/26 11:47:30;;;;;;;14.73;10.00;;;;;;;4.95;100.00;100458.56;5009429;28;20045;-74
2023/01/26 11:50:03;;;;;;;16.55;10.85;;;;;;;5.29;100.00;100503.13;5011000;28;20030;-74
2023/01/26 11:52:49;;;;;;;17.15;11.73;;;;;;;4.91;100.00;100403.97;5010863;28;20151;-72
2023/01/26 11:55:36;;;;;;;18.05;12.52;;;;;;;5.43;100.00;100493.09;5011031;28;20041;-73
2023/01/26 11:58:10;;;;;;;20.40;12.63;;;;;;;5.39;100.00;100494.75;5010926;28;20125;-73
2023/01/26 12:00:40;;;;;;;18.50;12.00;;;;;;;5.48;100.00;100473.75;5011332;28;20066;-72
2023/01/26 12:03:18;;;;;;;16.95;10.63;;;;;;;5.51;100.00;100461.97;5009658;28;20056;-73
2023/01/26 12:05:51;;;;;;;18.65;11.85;;;;;;;4.87;100.00;100357.78;5010853;28;20083;-72
2023/01/26 12:08:37;;;;;;;18.00;10.30;;;;;;;4.67;100.00;100319.19;5010984;28;20034;-72